WetterOnline ( https://www.wetteronline.de )

Wetter aktuell Theilenhofen

Aktuelles Wetter: Roth (386m)

6-stündlich | Neueste Meldungen
Ortszeit Temperatur Wetter
Fr, 24.05. 2:00 7.7° C wolkig
Do, 23.05. 20:00 18.0° C wolkig
Do, 23.05. 14:00 16.7° C bewölkt
Do, 23.05. 8:00 9.1° C wolkenlos
Do, 23.05. 2:00 7.9° C wolkig
Mi, 22.05. 20:00 13.8° C wolkig
Mi, 22.05. 14:00 12.1° C bedeckt
Mi, 22.05. 8:00 11.0° C bedeckt
Ortszeit Temperatur Wetter
Fr, 24.05. 7:30 9.9° C wolkenlos
Fr, 24.05. 7:20 9.9° C wolkenlos
Fr, 24.05. 7:10 9.8° C wolkenlos
Fr, 24.05. 7:00 8.4° C leicht bewölkt
Fr, 24.05. 6:50 8.4° C leicht bewölkt
Fr, 24.05. 6:40 8.7° C leicht bewölkt
Fr, 24.05. 6:30 6.3° C wolkig
Fr, 24.05. 6:00 5.9° C leicht bewölkt
Fr, 24.05. 5:30 6.5° C fast wolkenlos
Fr, 24.05. 5:00 6.0° C bewölkt
Fr, 24.05. 4:30 6.5° C leicht bewölkt
Ortszeit Relative Feuchte Sichtweite
Fr, 24.05. 2:00 93% 11 km
Do, 23.05. 20:00 45% 29 km
Do, 23.05. 14:00 42% 26 km
Do, 23.05. 8:00 89% 6 km
Do, 23.05. 2:00 98% 6 km
Mi, 22.05. 20:00 66% 25 km
Mi, 22.05. 14:00 85% 8 km
Mi, 22.05. 8:00 94% 5.0 km
Ortszeit Relative Feuchte Sichtweite
Fr, 24.05. 7:30 82% 15 km
Fr, 24.05. 7:20 82% -
Fr, 24.05. 7:10 83% -
Fr, 24.05. 7:00 89% 9 km
Fr, 24.05. 6:50 89% -
Fr, 24.05. 6:40 92% -
Fr, 24.05. 6:30 90% 13 km
Fr, 24.05. 6:00 96% 9 km
Fr, 24.05. 5:30 97% 7 km
Fr, 24.05. 5:00 94% 11 km
Fr, 24.05. 4:30 95% 10 km
Ortszeit Niederschlagsmenge Niederschlagsart
Fr, 24.05. 2:00 0.0 l/m2 in 6 Std. -
Do, 23.05. 20:00 0.0 l/m2 in 12 Std. -
Do, 23.05. 14:00 0.0 l/m2 in 6 Std. -
Do, 23.05. 8:00 0.0 l/m2 in 12 Std. -
Do, 23.05. 2:00 0.0 l/m2 in 6 Std. -
Mi, 22.05. 20:00 0.1 l/m2 in 12 Std. Regen
Mi, 22.05. 14:00 0.1 l/m2 in 6 Std. Sprühregen
Mi, 22.05. 8:00 11 l/m2 in 12 Std. Regen
Ortszeit Niederschlagsmenge Niederschlagsart
Fr, 24.05. 7:30 0.0 l/m2 in 1 Std. -
Fr, 24.05. 7:20 keine Meldung -
Fr, 24.05. 7:10 keine Meldung -
Fr, 24.05. 7:00 0.0 l/m2 in 1 Std. -
Fr, 24.05. 6:50 keine Meldung -
Fr, 24.05. 6:40 keine Meldung -
Fr, 24.05. 6:30 0.0 l/m2 in 1 Std. -
Fr, 24.05. 6:00 0.0 l/m2 in 1 Std. -
Fr, 24.05. 5:30 0.0 l/m2 in 1 Std. -
Fr, 24.05. 5:00 0.0 l/m2 in 1 Std. -
Fr, 24.05. 4:30 0.0 l/m2 in 1 Std. -
Ortszeit Stärke Spitze Richtung
km/h Bft. km/h Grad Sektor
Fr, 24.05. 2:00 4 1 11 150° SO
Do, 23.05. 20:00 7 2 18 360° N
Do, 23.05. 14:00 7 2 22 80° O
Do, 23.05. 8:00 4 1 11 210° SW
Do, 23.05. 2:00 4 1 22 220° SW
Mi, 22.05. 20:00 14 3 32 310° NW
Mi, 22.05. 14:00 13 3 30 310° NW
Mi, 22.05. 8:00 14 3 36 280° W
Ortszeit Stärke Spitze Richtung
km/h Bft. km/h Grad Sektor
Fr, 24.05. 7:30 4 1 4 210° SW
Fr, 24.05. 7:20 4 1 - 210° SW
Fr, 24.05. 7:10 4 1 - 220° SW
Fr, 24.05. 7:00 4 1 4 210° SW
Fr, 24.05. 6:50 4 1 - 210° SW
Fr, 24.05. 6:40 4 1 - 210° SW
Fr, 24.05. 6:30 4 1 4 170° S
Fr, 24.05. 6:00 4 1 4 220° SW
Fr, 24.05. 5:30 4 1 4 190° S
Fr, 24.05. 5:00 2 1 4 140° SO
Fr, 24.05. 4:30 4 1 4 140° SO
Ortszeit Untergrenze Bedeckung Gattung
total tief tief mittel hoch
Fr, 24.05. 2:00 8400 m 7/8 0/8 - - -
Do, 23.05. 20:00 1500 m 7/8 5/8 - - -
Do, 23.05. 14:00 1500 m 8/8 4/8 - - -
Do, 23.05. 8:00 - 0/8 0/8 - - -
Do, 23.05. 2:00 1080 m 7/8 4/8 - - -
Mi, 22.05. 20:00 1140 m 8/8 2/8 - - -
Mi, 22.05. 14:00 330 m 8/8 8/8 - - -
Mi, 22.05. 8:00 240 m 8/8 8/8 - - -
Ortszeit Bedeckungsgrad in Achtel und Wolkenuntergrenze
Fr, 24.05. 7:30 keine Wolken
Fr, 24.05. 7:20 keine Wolken
Fr, 24.05. 7:10 keine Wolken
Fr, 24.05. 7:00 3(7500m)
Fr, 24.05. 6:50 3(7500m)
Fr, 24.05. 6:40 5(7500m)
Fr, 24.05. 6:30 8(7200m) 8(8700m)
Fr, 24.05. 6:00 1(7200m) 4(9000m)
Fr, 24.05. 5:30 1(6900m)
Fr, 24.05. 5:00 7(6600m) 7(7200m)
Fr, 24.05. 4:30 4(6600m)
Ortszeit Luftdruck NN (hPa) Tendenz (hPa in 3 Std.)
Fr, 24.05. 2:00 1018 - 0,4
Do, 23.05. 20:00 1017 - 0,6
Do, 23.05. 14:00 1019 - 1,1
Do, 23.05. 8:00 1021 + 0,4
Do, 23.05. 2:00 1021 + 0,3
Mi, 22.05. 20:00 1019 + 0,5
Mi, 22.05. 14:00 1018 + 1,0
Mi, 22.05. 8:00 1016 + 1,4
Ortszeit Luftdruck NN (hPa) Tendenz (hPa in 3 Std.)
Fr, 24.05. 7:30 1017 + 0,1
Fr, 24.05. 7:20 1017 keine Meldung
Fr, 24.05. 7:10 1017 keine Meldung
Fr, 24.05. 7:00 1017 - 0,2
Fr, 24.05. 6:50 1017 keine Meldung
Fr, 24.05. 6:40 1017 keine Meldung
Fr, 24.05. 6:30 1018 - 0,3
Fr, 24.05. 6:00 1018 - 0,4
Fr, 24.05. 5:30 1017 - 0,6
Fr, 24.05. 5:00 1018 - 0,7
Fr, 24.05. 4:30 1017 - 0,9
Ortszeit Schneehöhe (cm)
Fr, 24.05. 2:00 -
Do, 23.05. 20:00 -
Do, 23.05. 14:00 -
Do, 23.05. 8:00 -
Do, 23.05. 2:00 -
Mi, 22.05. 20:00 -
Mi, 22.05. 14:00 -
Mi, 22.05. 8:00 -
Ortszeit Schneehöhe (cm)
Fr, 24.05. 7:30 -
Fr, 24.05. 7:20 -
Fr, 24.05. 7:10 -
Fr, 24.05. 7:00 -
Fr, 24.05. 6:50 -
Fr, 24.05. 6:40 -
Fr, 24.05. 6:30 -
Fr, 24.05. 6:00 -
Fr, 24.05. 5:30 -
Fr, 24.05. 5:00 -
Fr, 24.05. 4:30 -
Link zu dieser Seite / Seite empfehlen

Das Wetter in ...